Flight Track Log - Related Links

Times and Time Zones

All times are in EDT time to prevent confusion due to time zone crossing. See the WBR2623 flight status page for this flight to view local times or setup timezone preferences in your user account.

Time Position Orientation Groundspeed Altitude Reporting Facility
EDT Latitude Longitude Course Direction KTS MPH feet Rate Location/Type
Fri 09:36:12 AM 41.9667 -87.9500 270° West 81 93 2,400  Level Chicago TRACON
Fri 09:37:12 AM 41.9500 -87.9667 217° Southwest 77 89 3,200 789 Climbing Chicago TRACON
Fri 09:38:06 AM 41.9333 -88.0000 236° Southwest 94 108 3,900 684 Climbing Chicago TRACON
Fri 09:39:06 AM 41.9167 -88.0167 217° Southwest 113 130 4,500 550 Climbing Chicago TRACON
Fri 09:40:06 AM 41.8833 -88.0500 217° Southwest 124 143 5,000 238 Climbing Chicago TRACON
Fri 09:41:00 AM 41.9667 -88.2146 270° West  Level FlightAware Approximate
Fri 09:41:12 AM 41.8500 -88.0833 217° Southwest 145 167 5,000  Level Chicago TRACON
Fri 09:42:12 AM 41.8167 -88.1167 217° Southwest 143 165 5,100 50 Climbing Chicago TRACON
Fri 09:43:12 AM 41.7833 -88.1500 217° Southwest 145 167 5,100 -50 Level Chicago TRACON
Fri 09:44:13 AM 41.7500 -88.1667 200° South 143 165 5,000  Descending Chicago TRACON
Fri 09:45:13 AM 41.7167 -88.2000 217° Southwest 138 159 5,100 88 Climbing Chicago TRACON
Fri 09:46:30 AM 41.6967 -88.2575 245° Southwest 150 173 5,200  Climbing Chicago Center
Fri 09:47:32 AM 41.6872 -88.3081 256° West 142 163 5,100 -48 Descending Chicago Center
Fri 09:48:34 AM 41.6783 -88.3594 257° West 143 165 5,100  Level Chicago Center
Fri 09:49:36 AM 41.6681 -88.4106 255° West 143 165 5,100  Level Chicago Center
Fri 09:50:38 AM 41.6506 -88.4689 248° West 142 163 5,100  Level Chicago Center
Fri 09:51:40 AM 41.6356 -88.5158 247° West 140 161 5,100  Level Chicago Center
Fri 09:52:43 AM 41.6203 -88.5628 246° West 139 160 5,100 -48 Level Chicago Center
Fri 09:53:44 AM 41.6058 -88.6078 247° West 135 155 5,000  Descending Chicago Center
Fri 09:54:46 AM 41.5914 -88.6528 247° West 134 154 5,100  Climbing Chicago Center
Fri 09:55:48 AM 41.5739 -88.7039 245° Southwest 128 147 5,000  Descending Chicago Center
Fri 09:56:50 AM 41.5589 -88.7469 245° Southwest 129 148 5,100 48 Climbing Chicago Center
Fri 09:57:52 AM 41.5425 -88.7872 241° Southwest 126 145 5,100 145 Level Chicago Center
Fri 09:58:54 AM 41.5269 -88.8297 244° Southwest 127 146 5,400 339 Climbing Chicago Center
Fri 09:59:56 AM 41.5136 -88.8719 247° West 125 144 5,800 484 Climbing Chicago Center
Fri 10:00:58 AM 41.5014 -88.9247 253° West 125 144 6,400 484 Climbing Chicago Center
Fri 10:02:00 AM 41.4889 -88.9681 249° West 125 144 6,800 435 Climbing Chicago Center
Fri 10:03:02 AM 41.4783 -89.0122 252° West 125 144 7,300 435 Climbing Chicago Center
Fri 10:04:04 AM 41.4689 -89.0589 255° West 130 150 7,700 339 Climbing Chicago Center
Fri 10:05:06 AM 41.4514 -89.1011 241° Southwest 131 151 8,000 194 Climbing Chicago Center
Fri 10:06:08 AM 41.4294 -89.1583 243° Southwest 142 163 8,100 48 Climbing Chicago Center
Fri 10:07:10 AM 41.4222 -89.2078 259° West 141 162 8,100 -48 Level Chicago Center
Fri 10:08:12 AM 41.4064 -89.2547 246° West 139 160 8,000 -48 Descending Chicago Center
Fri 10:09:14 AM 41.3878 -89.2978 240° Southwest 138 159 8,000 48 Level Chicago Center
Fri 10:10:16 AM 41.3725 -89.3458 247° West 138 159 8,100 48 Climbing Chicago Center
Fri 10:11:18 AM 41.3608 -89.3969 253° West 140 161 8,100  Level Chicago Center
Fri 10:12:20 AM 41.3481 -89.4553 254° West 139 160 8,100  Level Chicago Center
Fri 10:13:22 AM 41.3342 -89.4989 247° West 133 153 8,100  Level Chicago Center
Fri 10:14:24 AM 41.3158 -89.5419 240° Southwest 133 153 8,100  Level Chicago Center
Fri 10:15:26 AM 41.2928 -89.5831 233° Southwest 136 157 8,100  Level Chicago Center
Fri 10:16:28 AM 41.2758 -89.6297 244° Southwest 139 160 8,100  Level Chicago Center
Fri 10:17:30 AM 41.2614 -89.6775 248° West 139 160 8,100  Level Chicago Center
Fri 10:18:33 AM 41.2428 -89.7311 245° Southwest 135 155 8,100  Level Chicago Center
Fri 10:19:35 AM 41.2275 -89.7778 246° West 136 157 8,100  Level Chicago Center
Fri 10:20:37 AM 41.2122 -89.8239 246° West 136 157 8,100  Level Chicago Center
Fri 10:21:39 AM 41.1958 -89.8700 245° Southwest 137 158 8,100  Level Chicago Center
Fri 10:22:41 AM 41.1842 -89.9175 252° West 136 157 8,100  Level Chicago Center
Fri 10:23:43 AM 41.1675 -89.9611 243° Southwest 133 153 8,100  Level Chicago Center
Fri 10:24:45 AM 41.1500 -90.0161 247° West 135 155 8,100  Level Chicago Center
Fri 10:25:47 AM 41.1361 -90.0636 249° West 138 159 8,100 -48 Level Chicago Center
Fri 10:26:49 AM 41.1225 -90.1139 250° West 143 165 8,000  Descending Chicago Center
Fri 10:27:51 AM 41.1119 -90.1625 254° West 140 161 8,100 48 Climbing Chicago Center
Fri 10:28:53 AM 41.0939 -90.2106 244° Southwest 143 165 8,100  Level Chicago Center
Fri 10:29:55 AM 41.0764 -90.2578 244° Southwest 144 166 8,100 -384 Level Chicago Center
Fri 10:30:58 AM 41.0536 -90.3186 244° Southwest 148 170 7,300 -672 Descending Chicago Center
Fri 10:32:00 AM 41.0364 -90.3686 245° Southwest 150 173 6,700 -532 Descending Chicago Center
Fri 10:33:02 AM 41.0253 -90.4161 253° West 145 167 6,200 -290 Descending Chicago Center
Fri 10:34:04 AM 41.0122 -90.4653 251° West 142 163 6,100 -48 Descending Chicago Center
Fri 10:35:06 AM 40.9997 -90.5075 249° West 135 155 6,100  Level Chicago Center
Fri 10:36:08 AM 40.9842 -90.5522 245° Southwest 131 151 6,100  Level Chicago Center
Fri 10:37:10 AM 40.9767 -90.6019 259° West 136 157 6,100  Level Chicago Center
Fri 10:38:12 AM 40.9853 -90.6614 281° West 137 158 6,100  Level Chicago Center
Fri 10:39:14 AM 40.9839 -90.7089 268° West 133 153 6,100  Level Chicago Center
Fri 10:40:16 AM 40.9817 -90.7592 267° West 134 154 6,100 -290 Level Chicago Center
Fri 10:41:18 AM 40.9800 -90.8094 268° West 135 155 5,500 -629 Descending Chicago Center
Fri 10:42:20 AM 40.9808 -90.8578 271° West 133 153 4,800 -629 Descending Chicago Center
Fri 10:43:22 AM 40.9744 -90.9058 260° West 132 152 4,200 -290 Descending Chicago Center
Fri 10:44:24 AM 40.9667 -90.9614 260° West 129 148 4,200  Level Chicago Center
Fri 10:45:27 AM 40.9606 -91.0086 260° West 130 150 4,200 -48 Level Chicago Center
Fri 10:46:29 AM 40.9600 -91.0572 269° West 131 151 4,100 -48 Descending Chicago Center
Fri 10:47:31 AM 40.9614 -91.1053 272° West 131 151 4,100  Level Chicago Center
Fri 10:48:33 AM 40.9569 -91.1522 263° West 130 150 4,100  Level Chicago Center
Fri 10:49:35 AM 40.9497 -91.1981 258° West 129 148 4,100 -242 Level Chicago Center
Fri 10:50:37 AM 40.9003 -91.1700 157° South 160 184 3,600 -581 Descending Chicago Center
Fri 10:51:39 AM 40.8617 -91.1428 152° Southeast 158 182 2,900 -774 Descending Chicago Center
Fri 10:52:41 AM 40.8261 -91.1233 158° South 150 173 2,000 -871 Descending Chicago Center
Fri 10:54:00 AM 40.7832 -91.1255 131° Southeast  Level Estimated

Login

Don't have an account? Register now (free) for customized features, flight alerts, and more!